Etusivu
METAR-TAF:

METAR-TAF

Lentoasemat :

Badajoz, Espanja

Leveyspiiri: 38-53N, Pituuspiiri: 006-49W, korkeus merenpinnasta: 185 m

Tämänhetkinen sää

Tämä raportti tehtiin 4 tuntia ja 36 minuuttia sitten, kello 19.00 UTC
Tuuli 10 kn lännestä, vaihdellen lännen ja luoteen välillä
Lämpötila 27°C
Kosteus 28%
Ilmanpaine 1016 hPa
Näkyvyys 10 km tai enemmän
ei pilviä alle 1500 m:ssä eikä cumulonimbus-pilviä

METAR: LEBZ 251900Z 28010KT 260V320 CAVOK 27/07 Q1016

Aika: 01:36 (23:36 UTC)

Sääennuste

Tämä raportti tehtiin 3 tuntia ja 36 minuuttia sitten, kello 20.00 UTC
Ennuste voimassa 25. päivästä klo 21 UTC - 26. päivään klo 21 UTC
Tuuli 8 kn lännestä
Näkyvyys 10 km tai enemmän
ei pilviä alle 1500 m:ssä eikä cumulonimbus-pilviä

TAF: LEBZ 252000Z 2521/2621 28008KT CAVOK TX30/2615Z TN12/2605Z

Säähavainnot ja -ennusteet yli 4000 lentoasemalta (METAR- ja TAF-raportit).

Käytössä olevat sääasemat on merkitty karttaan keltaisilla ja punaisilla pisteillä.

Aseta hiiri pisteen päälle nähdäksesi sääaseman nimen.

Klikkaa sitten nähdäksesi säähavainnot ja -ennusteet.

Kartan vaihtaminen: klikkaa mustalla rastilla varustettuja vihreitä pisteitä, niin voit zoomata sisään; viivalla varustettua vihreää pistettä, niin voit zoomata ulos tai vihreitä nuolia, niin pääset viereisille kartoille.


METAR-TAF: